sensor_id;sensor_type;location;lat;lon;timestamp;temperature;humidity
60723;DHT22;46574;52.818;6.516;2022-08-19T00:01:24;17.00;99.90
60723;DHT22;46574;52.818;6.516;2022-08-19T00:03:50;17.00;99.90
60723;DHT22;46574;52.818;6.516;2022-08-19T00:06:16;17.10;99.90
60723;DHT22;46574;52.818;6.516;2022-08-19T00:08:42;17.10;99.90
60723;DHT22;46574;52.818;6.516;2022-08-19T00:11:09;17.10;99.90
60723;DHT22;46574;52.818;6.516;2022-08-19T00:13:34;17.10;99.90
60723;DHT22;46574;52.818;6.516;2022-08-19T00:16:01;17.00;99.90
60723;DHT22;46574;52.818;6.516;2022-08-19T00:18:27;16.90;99.90
60723;DHT22;46574;52.818;6.516;2022-08-19T00:20:52;16.80;99.90
60723;DHT22;46574;52.818;6.516;2022-08-19T00:23:18;16.80;99.90
60723;DHT22;46574;52.818;6.516;2022-08-19T00:25:44;16.70;99.90
60723;DHT22;46574;52.818;6.516;2022-08-19T00:28:11;16.70;99.90
60723;DHT22;46574;52.818;6.516;2022-08-19T00:30:36;16.70;99.90
60723;DHT22;46574;52.818;6.516;2022-08-19T00:33:02;16.70;99.90
60723;DHT22;46574;52.818;6.516;2022-08-19T00:35:28;16.60;99.90
60723;DHT22;46574;52.818;6.516;2022-08-19T00:37:54;16.60;99.90
60723;DHT22;46574;52.818;6.516;2022-08-19T00:40:20;16.60;99.90
60723;DHT22;46574;52.818;6.516;2022-08-19T00:42:46;16.60;99.90
60723;DHT22;46574;52.818;6.516;2022-08-19T00:45:16;16.60;99.90
60723;DHT22;46574;52.818;6.516;2022-08-19T00:47:43;16.60;99.90
60723;DHT22;46574;52.818;6.516;2022-08-19T00:50:11;16.50;99.90
60723;DHT22;46574;52.818;6.516;2022-08-19T00:52:43;16.50;99.90
60723;DHT22;46574;52.818;6.516;2022-08-19T00:55:18;16.50;99.90
60723;DHT22;46574;52.818;6.516;2022-08-19T00:57:52;16.50;99.90
60723;DHT22;46574;52.818;6.516;2022-08-19T01:00:21;16.50;99.90
60723;DHT22;46574;52.818;6.516;2022-08-19T01:02:47;16.40;99.90
60723;DHT22;46574;52.818;6.516;2022-08-19T01:05:16;16.40;99.90
60723;DHT22;46574;52.818;6.516;2022-08-19T01:07:44;16.40;99.90
60723;DHT22;46574;52.818;6.516;2022-08-19T01:10:15;16.40;99.90
60723;DHT22;46574;52.818;6.516;2022-08-19T01:12:41;16.30;99.90
60723;DHT22;46574;52.818;6.516;2022-08-19T01:15:10;16.30;99.90
60723;DHT22;46574;52.818;6.516;2022-08-19T01:17:36;16.40;99.90
60723;DHT22;46574;52.818;6.516;2022-08-19T01:20:04;16.40;99.90
60723;DHT22;46574;52.818;6.516;2022-08-19T01:22:36;16.30;99.90
60723;DHT22;46574;52.818;6.516;2022-08-19T01:25:06;16.40;99.90
60723;DHT22;46574;52.818;6.516;2022-08-19T01:27:47;16.40;99.90
60723;DHT22;46574;52.818;6.516;2022-08-19T01:30:17;16.40;99.90
60723;DHT22;46574;52.818;6.516;2022-08-19T01:32:43;16.40;99.90
60723;DHT22;46574;52.818;6.516;2022-08-19T01:35:11;16.40;99.90
60723;DHT22;46574;52.818;6.516;2022-08-19T01:38:05;16.40;99.90
60723;DHT22;46574;52.818;6.516;2022-08-19T01:40:34;16.40;99.90
60723;DHT22;46574;52.818;6.516;2022-08-19T01:43:02;16.30;99.90
60723;DHT22;46574;52.818;6.516;2022-08-19T01:45:30;16.40;99.90
60723;DHT22;46574;52.818;6.516;2022-08-19T01:47:57;16.40;99.90
60723;DHT22;46574;52.818;6.516;2022-08-19T01:50:27;16.30;99.90
60723;DHT22;46574;52.818;6.516;2022-08-19T01:52:53;16.20;99.90
60723;DHT22;46574;52.818;6.516;2022-08-19T01:55:20;16.20;99.90
60723;DHT22;46574;52.818;6.516;2022-08-19T01:57:50;16.20;99.90
60723;DHT22;46574;52.818;6.516;2022-08-19T02:00:19;16.10;99.90
60723;DHT22;46574;52.818;6.516;2022-08-19T02:02:45;16.10;99.90
60723;DHT22;46574;52.818;6.516;2022-08-19T02:05:12;16.00;99.90
60723;DHT22;46574;52.818;6.516;2022-08-19T02:07:39;15.90;99.90
60723;DHT22;46574;52.818;6.516;2022-08-19T02:10:09;15.90;99.90
60723;DHT22;46574;52.818;6.516;2022-08-19T02:12:35;15.80;99.90
60723;DHT22;46574;52.818;6.516;2022-08-19T02:15:01;15.80;99.90
60723;DHT22;46574;52.818;6.516;2022-08-19T02:17:28;15.80;99.90
60723;DHT22;46574;52.818;6.516;2022-08-19T02:19:55;15.70;99.90
60723;DHT22;46574;52.818;6.516;2022-08-19T02:22:22;15.70;99.90
60723;DHT22;46574;52.818;6.516;2022-08-19T02:24:47;15.70;99.90
60723;DHT22;46574;52.818;6.516;2022-08-19T02:27:14;15.70;99.90
60723;DHT22;46574;52.818;6.516;2022-08-19T02:29:40;15.70;99.90
60723;DHT22;46574;52.818;6.516;2022-08-19T02:32:07;15.70;99.90
60723;DHT22;46574;52.818;6.516;2022-08-19T02:34:34;15.70;99.90
60723;DHT22;46574;52.818;6.516;2022-08-19T02:36:59;15.80;99.90
60723;DHT22;46574;52.818;6.516;2022-08-19T02:39:25;15.80;99.90
60723;DHT22;46574;52.818;6.516;2022-08-19T02:41:52;15.80;99.90
60723;DHT22;46574;52.818;6.516;2022-08-19T02:44:18;15.90;99.90
60723;DHT22;46574;52.818;6.516;2022-08-19T02:46:45;15.90;99.90
60723;DHT22;46574;52.818;6.516;2022-08-19T02:49:12;15.90;99.90
60723;DHT22;46574;52.818;6.516;2022-08-19T02:51:43;16.00;99.90
60723;DHT22;46574;52.818;6.516;2022-08-19T02:54:10;16.00;99.90
60723;DHT22;46574;52.818;6.516;2022-08-19T02:56:37;16.00;99.90
60723;DHT22;46574;52.818;6.516;2022-08-19T02:59:04;16.10;99.90
60723;DHT22;46574;52.818;6.516;2022-08-19T03:01:35;16.10;99.90
60723;DHT22;46574;52.818;6.516;2022-08-19T03:04:03;16.10;99.90
60723;DHT22;46574;52.818;6.516;2022-08-19T03:06:30;16.10;99.90
60723;DHT22;46574;52.818;6.516;2022-08-19T03:08:56;16.10;99.90
60723;DHT22;46574;52.818;6.516;2022-08-19T03:11:30;16.10;99.90
60723;DHT22;46574;52.818;6.516;2022-08-19T03:13:57;16.10;99.90
60723;DHT22;46574;52.818;6.516;2022-08-19T03:16:24;16.10;99.90
60723;DHT22;46574;52.818;6.516;2022-08-19T03:18:51;16.10;99.90
60723;DHT22;46574;52.818;6.516;2022-08-19T03:21:19;16.10;99.90
60723;DHT22;46574;52.818;6.516;2022-08-19T03:23:45;16.10;99.90
60723;DHT22;46574;52.818;6.516;2022-08-19T03:26:11;16.10;99.90
60723;DHT22;46574;52.818;6.516;2022-08-19T03:28:37;16.10;99.90
60723;DHT22;46574;52.818;6.516;2022-08-19T03:31:09;16.10;99.90
60723;DHT22;46574;52.818;6.516;2022-08-19T03:33:36;16.10;99.90
60723;DHT22;46574;52.818;6.516;2022-08-19T03:36:06;16.00;99.90
60723;DHT22;46574;52.818;6.516;2022-08-19T03:38:35;16.00;99.90
60723;DHT22;46574;52.818;6.516;2022-08-19T03:41:13;16.00;99.90
60723;DHT22;46574;52.818;6.516;2022-08-19T03:43:40;16.00;99.90
60723;DHT22;46574;52.818;6.516;2022-08-19T03:46:11;16.00;99.90
60723;DHT22;46574;52.818;6.516;2022-08-19T03:48:39;15.90;99.90
60723;DHT22;46574;52.818;6.516;2022-08-19T03:51:06;15.80;99.90
60723;DHT22;46574;52.818;6.516;2022-08-19T03:53:34;15.80;99.90
60723;DHT22;46574;52.818;6.516;2022-08-19T03:56:00;15.70;99.90
60723;DHT22;46574;52.818;6.516;2022-08-19T03:58:27;15.60;99.90
60723;DHT22;46574;52.818;6.516;2022-08-19T04:00:56;15.60;99.90
60723;DHT22;46574;52.818;6.516;2022-08-19T04:03:24;15.50;99.90
60723;DHT22;46574;52.818;6.516;2022-08-19T04:05:50;15.50;99.90
60723;DHT22;46574;52.818;6.516;2022-08-19T04:08:16;15.50;99.90
60723;DHT22;46574;52.818;6.516;2022-08-19T04:10:48;15.50;99.90
60723;DHT22;46574;52.818;6.516;2022-08-19T04:13:16;15.50;99.90
60723;DHT22;46574;52.818;6.516;2022-08-19T04:15:44;15.50;99.90
60723;DHT22;46574;52.818;6.516;2022-08-19T04:18:11;15.50;99.90
60723;DHT22;46574;52.818;6.516;2022-08-19T04:20:45;15.50;99.90
60723;DHT22;46574;52.818;6.516;2022-08-19T04:23:12;15.50;99.90
60723;DHT22;46574;52.818;6.516;2022-08-19T04:25:43;15.60;99.90
60723;DHT22;46574;52.818;6.516;2022-08-19T04:28:10;15.60;99.90
60723;DHT22;46574;52.818;6.516;2022-08-19T04:30:41;15.60;99.90
60723;DHT22;46574;52.818;6.516;2022-08-19T04:33:07;15.60;99.90
60723;DHT22;46574;52.818;6.516;2022-08-19T04:35:42;15.60;99.90
60723;DHT22;46574;52.818;6.516;2022-08-19T04:38:09;15.60;99.90
60723;DHT22;46574;52.818;6.516;2022-08-19T04:40:41;15.60;99.90
60723;DHT22;46574;52.818;6.516;2022-08-19T04:43:26;15.60;99.90
60723;DHT22;46574;52.818;6.516;2022-08-19T04:45:51;15.60;99.90
60723;DHT22;46574;52.818;6.516;2022-08-19T04:48:17;15.60;99.90
60723;DHT22;46574;52.818;6.516;2022-08-19T04:50:47;15.60;99.90
60723;DHT22;46574;52.818;6.516;2022-08-19T04:53:13;15.60;99.90
60723;DHT22;46574;52.818;6.516;2022-08-19T04:55:41;15.60;99.90
60723;DHT22;46574;52.818;6.516;2022-08-19T04:58:06;15.60;99.90
60723;DHT22;46574;52.818;6.516;2022-08-19T05:00:32;15.60;99.90
60723;DHT22;46574;52.818;6.516;2022-08-19T05:03:01;15.50;99.90
60723;DHT22;46574;52.818;6.516;2022-08-19T05:05:28;15.50;99.90
60723;DHT22;46574;52.818;6.516;2022-08-19T05:07:53;15.40;99.90
60723;DHT22;46574;52.818;6.516;2022-08-19T05:10:21;15.40;99.90
60723;DHT22;46574;52.818;6.516;2022-08-19T05:12:46;15.30;99.90
60723;DHT22;46574;52.818;6.516;2022-08-19T05:15:12;15.30;99.90
60723;DHT22;46574;52.818;6.516;2022-08-19T05:17:38;15.30;99.90
60723;DHT22;46574;52.818;6.516;2022-08-19T05:20:23;15.30;99.90
60723;DHT22;46574;52.818;6.516;2022-08-19T05:23:10;15.30;99.90
60723;DHT22;46574;52.818;6.516;2022-08-19T05:25:39;15.40;99.90
60723;DHT22;46574;52.818;6.516;2022-08-19T05:28:05;15.40;99.90
60723;DHT22;46574;52.818;6.516;2022-08-19T05:30:30;15.40;99.90
60723;DHT22;46574;52.818;6.516;2022-08-19T05:32:56;15.40;99.90
60723;DHT22;46574;52.818;6.516;2022-08-19T05:35:21;15.50;99.90
60723;DHT22;46574;52.818;6.516;2022-08-19T05:37:49;15.50;99.90
60723;DHT22;46574;52.818;6.516;2022-08-19T05:40:14;15.60;99.90
60723;DHT22;46574;52.818;6.516;2022-08-19T05:42:40;15.60;99.90
60723;DHT22;46574;52.818;6.516;2022-08-19T05:45:06;15.70;99.90
60723;DHT22;46574;52.818;6.516;2022-08-19T05:47:32;15.80;99.90
60723;DHT22;46574;52.818;6.516;2022-08-19T05:49:58;15.90;99.90
60723;DHT22;46574;52.818;6.516;2022-08-19T05:52:24;16.00;99.90
60723;DHT22;46574;52.818;6.516;2022-08-19T05:54:50;16.00;99.90
60723;DHT22;46574;52.818;6.516;2022-08-19T05:57:16;16.20;99.90
60723;DHT22;46574;52.818;6.516;2022-08-19T05:59:42;16.30;99.90
60723;DHT22;46574;52.818;6.516;2022-08-19T06:02:09;16.40;99.90
60723;DHT22;46574;52.818;6.516;2022-08-19T06:04:35;16.40;99.90
60723;DHT22;46574;52.818;6.516;2022-08-19T06:07:01;16.50;99.90
60723;DHT22;46574;52.818;6.516;2022-08-19T06:09:27;16.60;99.90
60723;DHT22;46574;52.818;6.516;2022-08-19T06:11:57;16.60;99.90
60723;DHT22;46574;52.818;6.516;2022-08-19T06:14:29;16.70;99.90
60723;DHT22;46574;52.818;6.516;2022-08-19T06:16:56;16.80;99.90
60723;DHT22;46574;52.818;6.516;2022-08-19T06:19:22;16.90;99.90
60723;DHT22;46574;52.818;6.516;2022-08-19T06:21:50;16.90;99.90
60723;DHT22;46574;52.818;6.516;2022-08-19T06:24:19;17.00;99.90
60723;DHT22;46574;52.818;6.516;2022-08-19T06:26:47;17.10;99.90
60723;DHT22;46574;52.818;6.516;2022-08-19T06:29:15;17.10;99.90
60723;DHT22;46574;52.818;6.516;2022-08-19T06:31:44;17.20;99.90
60723;DHT22;46574;52.818;6.516;2022-08-19T06:34:10;17.30;99.90
60723;DHT22;46574;52.818;6.516;2022-08-19T06:36:40;17.30;99.90
60723;DHT22;46574;52.818;6.516;2022-08-19T06:39:12;17.40;99.90
60723;DHT22;46574;52.818;6.516;2022-08-19T06:41:41;17.50;99.90
60723;DHT22;46574;52.818;6.516;2022-08-19T06:44:07;17.60;99.90
60723;DHT22;46574;52.818;6.516;2022-08-19T06:46:33;17.70;99.90
60723;DHT22;46574;52.818;6.516;2022-08-19T06:48:59;17.80;99.90
60723;DHT22;46574;52.818;6.516;2022-08-19T06:51:25;17.90;99.90
60723;DHT22;46574;52.818;6.516;2022-08-19T06:53:53;18.00;99.90
60723;DHT22;46574;52.818;6.516;2022-08-19T06:56:22;18.10;99.90
60723;DHT22;46574;52.818;6.516;2022-08-19T06:58:50;18.20;99.90
60723;DHT22;46574;52.818;6.516;2022-08-19T07:01:19;18.20;99.90
60723;DHT22;46574;52.818;6.516;2022-08-19T07:03:45;18.30;99.90
60723;DHT22;46574;52.818;6.516;2022-08-19T07:06:15;18.40;99.90
60723;DHT22;46574;52.818;6.516;2022-08-19T07:08:43;18.50;99.90
60723;DHT22;46574;52.818;6.516;2022-08-19T07:11:12;18.60;99.90
60723;DHT22;46574;52.818;6.516;2022-08-19T07:13:40;18.60;99.90
60723;DHT22;46574;52.818;6.516;2022-08-19T07:16:07;18.80;99.90
60723;DHT22;46574;52.818;6.516;2022-08-19T07:18:33;18.80;99.90
60723;DHT22;46574;52.818;6.516;2022-08-19T07:21:10;19.00;99.90
60723;DHT22;46574;52.818;6.516;2022-08-19T07:23:36;19.10;99.90
60723;DHT22;46574;52.818;6.516;2022-08-19T07:26:11;19.20;99.90
60723;DHT22;46574;52.818;6.516;2022-08-19T07:28:37;19.30;99.90
60723;DHT22;46574;52.818;6.516;2022-08-19T07:31:06;19.30;99.90
60723;DHT22;46574;52.818;6.516;2022-08-19T07:33:32;19.40;99.90
60723;DHT22;46574;52.818;6.516;2022-08-19T07:35:58;19.50;99.90
60723;DHT22;46574;52.818;6.516;2022-08-19T07:38:24;19.60;99.90
60723;DHT22;46574;52.818;6.516;2022-08-19T07:40:50;19.70;99.90
60723;DHT22;46574;52.818;6.516;2022-08-19T07:43:17;19.80;99.90
60723;DHT22;46574;52.818;6.516;2022-08-19T07:45:46;19.90;99.90
60723;DHT22;46574;52.818;6.516;2022-08-19T07:48:12;19.90;99.90
60723;DHT22;46574;52.818;6.516;2022-08-19T07:50:38;20.00;99.90
60723;DHT22;46574;52.818;6.516;2022-08-19T07:53:03;20.10;99.90
60723;DHT22;46574;52.818;6.516;2022-08-19T07:55:29;20.10;99.90
60723;DHT22;46574;52.818;6.516;2022-08-19T07:57:55;20.20;99.90
60723;DHT22;46574;52.818;6.516;2022-08-19T08:00:21;20.30;99.90
60723;DHT22;46574;52.818;6.516;2022-08-19T08:02:46;20.30;99.90
60723;DHT22;46574;52.818;6.516;2022-08-19T08:05:12;20.40;99.90
60723;DHT22;46574;52.818;6.516;2022-08-19T08:08:04;20.50;99.90
60723;DHT22;46574;52.818;6.516;2022-08-19T08:10:48;20.50;99.90
60723;DHT22;46574;52.818;6.516;2022-08-19T08:13:13;20.60;99.90
60723;DHT22;46574;52.818;6.516;2022-08-19T08:15:40;20.70;99.90
60723;DHT22;46574;52.818;6.516;2022-08-19T08:18:05;20.80;99.90
60723;DHT22;46574;52.818;6.516;2022-08-19T08:20:32;20.90;99.90
60723;DHT22;46574;52.818;6.516;2022-08-19T08:22:57;21.10;99.90
60723;DHT22;46574;52.818;6.516;2022-08-19T08:25:41;21.10;99.90
60723;DHT22;46574;52.818;6.516;2022-08-19T08:28:07;21.20;99.90
60723;DHT22;46574;52.818;6.516;2022-08-19T08:30:34;21.30;99.90
60723;DHT22;46574;52.818;6.516;2022-08-19T08:33:02;21.40;99.90
60723;DHT22;46574;52.818;6.516;2022-08-19T08:35:28;21.50;99.90
60723;DHT22;46574;52.818;6.516;2022-08-19T08:37:54;21.60;99.90
60723;DHT22;46574;52.818;6.516;2022-08-19T08:43:46;21.80;99.90
60723;DHT22;46574;52.818;6.516;2022-08-19T08:46:36;22.00;99.90
60723;DHT22;46574;52.818;6.516;2022-08-19T08:51:51;22.20;99.90
60723;DHT22;46574;52.818;6.516;2022-08-19T08:54:20;22.30;99.90
60723;DHT22;46574;52.818;6.516;2022-08-19T08:56:52;22.50;99.90
60723;DHT22;46574;52.818;6.516;2022-08-19T08:59:28;22.60;99.90
60723;DHT22;46574;52.818;6.516;2022-08-19T09:01:56;22.70;99.90
60723;DHT22;46574;52.818;6.516;2022-08-19T09:04:22;22.90;99.90
60723;DHT22;46574;52.818;6.516;2022-08-19T09:06:55;23.10;99.90
60723;DHT22;46574;52.818;6.516;2022-08-19T09:09:30;23.30;99.90
60723;DHT22;46574;52.818;6.516;2022-08-19T09:12:13;23.40;99.90
60723;DHT22;46574;52.818;6.516;2022-08-19T09:14:49;23.50;99.90
60723;DHT22;46574;52.818;6.516;2022-08-19T09:17:17;23.60;99.90
60723;DHT22;46574;52.818;6.516;2022-08-19T09:22:40;24.10;99.90
60723;DHT22;46574;52.818;6.516;2022-08-19T09:25:14;24.20;99.90
60723;DHT22;46574;52.818;6.516;2022-08-19T09:27:41;24.30;99.90
60723;DHT22;46574;52.818;6.516;2022-08-19T09:30:13;24.30;99.90
60723;DHT22;46574;52.818;6.516;2022-08-19T09:32:40;24.40;99.90
60723;DHT22;46574;52.818;6.516;2022-08-19T09:35:08;24.40;99.90
60723;DHT22;46574;52.818;6.516;2022-08-19T09:37:34;24.40;99.90
60723;DHT22;46574;52.818;6.516;2022-08-19T09:39:59;24.50;99.90
60723;DHT22;46574;52.818;6.516;2022-08-19T09:42:25;24.60;99.90
60723;DHT22;46574;52.818;6.516;2022-08-19T09:44:50;24.60;99.90
60723;DHT22;46574;52.818;6.516;2022-08-19T09:47:16;24.70;99.90
60723;DHT22;46574;52.818;6.516;2022-08-19T09:49:42;24.80;99.90
60723;DHT22;46574;52.818;6.516;2022-08-19T09:52:11;24.90;99.90
60723;DHT22;46574;52.818;6.516;2022-08-19T09:54:38;25.00;99.90
60723;DHT22;46574;52.818;6.516;2022-08-19T09:57:04;25.00;99.90
60723;DHT22;46574;52.818;6.516;2022-08-19T09:59:30;25.20;99.90
60723;DHT22;46574;52.818;6.516;2022-08-19T10:01:56;25.10;99.90
60723;DHT22;46574;52.818;6.516;2022-08-19T10:04:21;25.20;99.90
60723;DHT22;46574;52.818;6.516;2022-08-19T10:06:49;25.20;99.90
60723;DHT22;46574;52.818;6.516;2022-08-19T10:09:16;25.30;99.90
60723;DHT22;46574;52.818;6.516;2022-08-19T10:11:44;25.30;99.90
60723;DHT22;46574;52.818;6.516;2022-08-19T10:14:13;25.40;99.90
60723;DHT22;46574;52.818;6.516;2022-08-19T10:16:40;25.50;99.90
60723;DHT22;46574;52.818;6.516;2022-08-19T10:19:07;25.50;99.90
60723;DHT22;46574;52.818;6.516;2022-08-19T10:21:35;25.50;99.90
60723;DHT22;46574;52.818;6.516;2022-08-19T10:24:03;25.50;99.90
60723;DHT22;46574;52.818;6.516;2022-08-19T10:26:38;25.50;99.90
60723;DHT22;46574;52.818;6.516;2022-08-19T10:29:05;25.70;90.90
60723;DHT22;46574;52.818;6.516;2022-08-19T10:31:32;25.60;91.30
60723;DHT22;46574;52.818;6.516;2022-08-19T10:33:59;25.50;92.00
60723;DHT22;46574;52.818;6.516;2022-08-19T10:36:33;25.60;92.60
60723;DHT22;46574;52.818;6.516;2022-08-19T10:39:04;25.70;89.20
60723;DHT22;46574;52.818;6.516;2022-08-19T10:41:32;25.80;89.30
60723;DHT22;46574;52.818;6.516;2022-08-19T10:44:03;25.80;83.60
60723;DHT22;46574;52.818;6.516;2022-08-19T10:46:30;25.80;82.70
60723;DHT22;46574;52.818;6.516;2022-08-19T10:48:59;25.90;91.50
60723;DHT22;46574;52.818;6.516;2022-08-19T10:51:25;25.90;88.60
60723;DHT22;46574;52.818;6.516;2022-08-19T10:54:10;25.80;89.10
60723;DHT22;46574;52.818;6.516;2022-08-19T10:56:35;25.90;91.50
60723;DHT22;46574;52.818;6.516;2022-08-19T10:59:24;25.80;91.30
60723;DHT22;46574;52.818;6.516;2022-08-19T11:01:54;25.70;91.70
60723;DHT22;46574;52.818;6.516;2022-08-19T11:04:20;25.80;94.70
60723;DHT22;46574;52.818;6.516;2022-08-19T11:06:46;25.90;96.10
60723;DHT22;46574;52.818;6.516;2022-08-19T11:09:14;26.00;98.70
60723;DHT22;46574;52.818;6.516;2022-08-19T11:11:41;26.00;99.90
60723;DHT22;46574;52.818;6.516;2022-08-19T11:14:09;25.90;98.90
60723;DHT22;46574;52.818;6.516;2022-08-19T11:16:35;25.80;98.50
60723;DHT22;46574;52.818;6.516;2022-08-19T11:19:02;25.60;98.20
60723;DHT22;46574;52.818;6.516;2022-08-19T11:21:31;25.50;96.00
60723;DHT22;46574;52.818;6.516;2022-08-19T11:24:00;25.50;99.40
60723;DHT22;46574;52.818;6.516;2022-08-19T11:26:27;25.60;97.70
60723;DHT22;46574;52.818;6.516;2022-08-19T11:28:53;25.60;97.90
60723;DHT22;46574;52.818;6.516;2022-08-19T11:31:23;25.60;97.60
60723;DHT22;46574;52.818;6.516;2022-08-19T11:33:48;25.50;99.90
60723;DHT22;46574;52.818;6.516;2022-08-19T11:36:20;25.60;95.00
60723;DHT22;46574;52.818;6.516;2022-08-19T11:38:47;25.60;99.90
60723;DHT22;46574;52.818;6.516;2022-08-19T11:41:14;25.60;97.50
60723;DHT22;46574;52.818;6.516;2022-08-19T11:43:40;25.60;97.70
60723;DHT22;46574;52.818;6.516;2022-08-19T11:46:08;25.70;93.30
60723;DHT22;46574;52.818;6.516;2022-08-19T11:48:35;25.80;93.00
60723;DHT22;46574;52.818;6.516;2022-08-19T11:51:04;25.80;93.10
60723;DHT22;46574;52.818;6.516;2022-08-19T11:53:32;25.70;94.90
60723;DHT22;46574;52.818;6.516;2022-08-19T11:55:58;25.70;95.00
60723;DHT22;46574;52.818;6.516;2022-08-19T11:58:24;25.70;94.70
60723;DHT22;46574;52.818;6.516;2022-08-19T12:00:51;25.70;94.10
60723;DHT22;46574;52.818;6.516;2022-08-19T12:03:17;25.70;95.10
60723;DHT22;46574;52.818;6.516;2022-08-19T12:05:43;25.70;95.70
60723;DHT22;46574;52.818;6.516;2022-08-19T12:08:09;25.70;97.00
60723;DHT22;46574;52.818;6.516;2022-08-19T12:10:36;25.70;95.80
60723;DHT22;46574;52.818;6.516;2022-08-19T12:13:02;25.70;93.50
60723;DHT22;46574;52.818;6.516;2022-08-19T12:15:28;25.60;92.40
60723;DHT22;46574;52.818;6.516;2022-08-19T12:17:55;25.60;85.60
60723;DHT22;46574;52.818;6.516;2022-08-19T12:20:23;25.70;80.50
60723;DHT22;46574;52.818;6.516;2022-08-19T12:22:49;25.70;79.40
60723;DHT22;46574;52.818;6.516;2022-08-19T12:25:15;25.70;84.00
60723;DHT22;46574;52.818;6.516;2022-08-19T12:27:41;25.70;86.20
60723;DHT22;46574;52.818;6.516;2022-08-19T12:30:10;25.80;86.00
60723;DHT22;46574;52.818;6.516;2022-08-19T12:32:36;25.80;92.00
60723;DHT22;46574;52.818;6.516;2022-08-19T12:35:01;25.80;91.50
60723;DHT22;46574;52.818;6.516;2022-08-19T12:37:27;26.00;84.90
60723;DHT22;46574;52.818;6.516;2022-08-19T12:39:53;26.00;71.90
60723;DHT22;46574;52.818;6.516;2022-08-19T12:42:18;26.00;69.00
60723;DHT22;46574;52.818;6.516;2022-08-19T12:44:44;26.00;68.00
60723;DHT22;46574;52.818;6.516;2022-08-19T12:47:12;26.00;67.10
60723;DHT22;46574;52.818;6.516;2022-08-19T12:49:40;26.00;65.20
60723;DHT22;46574;52.818;6.516;2022-08-19T12:52:07;25.90;67.80
60723;DHT22;46574;52.818;6.516;2022-08-19T12:54:34;25.90;67.60
60723;DHT22;46574;52.818;6.516;2022-08-19T12:57:00;25.80;66.10
60723;DHT22;46574;52.818;6.516;2022-08-19T12:59:26;25.90;69.20
60723;DHT22;46574;52.818;6.516;2022-08-19T13:01:52;25.90;70.40
60723;DHT22;46574;52.818;6.516;2022-08-19T13:04:18;26.00;69.50
60723;DHT22;46574;52.818;6.516;2022-08-19T13:06:44;26.00;69.50
60723;DHT22;46574;52.818;6.516;2022-08-19T13:09:10;26.00;72.00
60723;DHT22;46574;52.818;6.516;2022-08-19T13:11:37;26.10;70.70
60723;DHT22;46574;52.818;6.516;2022-08-19T13:14:03;26.20;69.60
60723;DHT22;46574;52.818;6.516;2022-08-19T13:16:29;26.20;72.00
60723;DHT22;46574;52.818;6.516;2022-08-19T13:18:56;26.30;75.30
60723;DHT22;46574;52.818;6.516;2022-08-19T13:21:25;26.50;77.30
60723;DHT22;46574;52.818;6.516;2022-08-19T13:23:53;26.50;74.20
60723;DHT22;46574;52.818;6.516;2022-08-19T13:26:20;26.50;77.30
60723;DHT22;46574;52.818;6.516;2022-08-19T13:28:46;26.50;69.30
60723;DHT22;46574;52.818;6.516;2022-08-19T13:31:33;26.50;69.10
60723;DHT22;46574;52.818;6.516;2022-08-19T13:34:24;26.60;67.30
60723;DHT22;46574;52.818;6.516;2022-08-19T13:36:52;26.60;64.30
60723;DHT22;46574;52.818;6.516;2022-08-19T13:39:18;26.60;66.90
60723;DHT22;46574;52.818;6.516;2022-08-19T13:41:45;26.60;69.80
60723;DHT22;46574;52.818;6.516;2022-08-19T13:44:16;26.60;71.80
60723;DHT22;46574;52.818;6.516;2022-08-19T13:46:46;26.40;74.20
60723;DHT22;46574;52.818;6.516;2022-08-19T13:49:14;26.20;78.80
60723;DHT22;46574;52.818;6.516;2022-08-19T13:51:41;26.00;81.50
60723;DHT22;46574;52.818;6.516;2022-08-19T13:54:08;25.90;87.10
60723;DHT22;46574;52.818;6.516;2022-08-19T13:56:39;25.80;92.00
60723;DHT22;46574;52.818;6.516;2022-08-19T13:59:05;25.80;95.20
60723;DHT22;46574;52.818;6.516;2022-08-19T14:01:30;25.60;97.70
60723;DHT22;46574;52.818;6.516;2022-08-19T14:03:56;25.60;99.90
60723;DHT22;46574;52.818;6.516;2022-08-19T14:06:22;25.70;99.90
60723;DHT22;46574;52.818;6.516;2022-08-19T14:08:47;25.70;99.90
60723;DHT22;46574;52.818;6.516;2022-08-19T14:11:13;25.70;99.90
60723;DHT22;46574;52.818;6.516;2022-08-19T14:13:39;25.70;99.90
60723;DHT22;46574;52.818;6.516;2022-08-19T14:16:10;25.50;99.90
60723;DHT22;46574;52.818;6.516;2022-08-19T14:18:37;25.40;99.90
60723;DHT22;46574;52.818;6.516;2022-08-19T14:21:04;25.30;99.90
60723;DHT22;46574;52.818;6.516;2022-08-19T14:23:31;25.20;99.90
60723;DHT22;46574;52.818;6.516;2022-08-19T14:26:11;25.10;99.90
60723;DHT22;46574;52.818;6.516;2022-08-19T14:28:38;25.00;99.90
60723;DHT22;46574;52.818;6.516;2022-08-19T14:31:04;24.90;99.90
60723;DHT22;46574;52.818;6.516;2022-08-19T14:33:30;24.90;99.90
60723;DHT22;46574;52.818;6.516;2022-08-19T14:35:57;24.90;99.90
60723;DHT22;46574;52.818;6.516;2022-08-19T14:38:23;25.00;99.90
60723;DHT22;46574;52.818;6.516;2022-08-19T14:40:48;25.00;99.90
60723;DHT22;46574;52.818;6.516;2022-08-19T14:43:14;25.20;99.90
60723;DHT22;46574;52.818;6.516;2022-08-19T14:45:40;25.20;99.90
60723;DHT22;46574;52.818;6.516;2022-08-19T14:48:08;25.20;99.90
60723;DHT22;46574;52.818;6.516;2022-08-19T14:50:34;25.20;99.90
60723;DHT22;46574;52.818;6.516;2022-08-19T14:53:07;25.20;99.90
60723;DHT22;46574;52.818;6.516;2022-08-19T14:55:33;25.30;99.90
60723;DHT22;46574;52.818;6.516;2022-08-19T14:57:59;25.30;99.90
60723;DHT22;46574;52.818;6.516;2022-08-19T15:00:25;25.30;99.90
60723;DHT22;46574;52.818;6.516;2022-08-19T15:02:52;25.40;99.90
60723;DHT22;46574;52.818;6.516;2022-08-19T15:05:20;25.40;99.90
60723;DHT22;46574;52.818;6.516;2022-08-19T15:07:46;25.40;99.90
60723;DHT22;46574;52.818;6.516;2022-08-19T15:10:13;25.30;99.90
60723;DHT22;46574;52.818;6.516;2022-08-19T15:12:40;25.10;99.90
60723;DHT22;46574;52.818;6.516;2022-08-19T15:15:10;24.90;99.90
60723;DHT22;46574;52.818;6.516;2022-08-19T15:17:43;24.60;99.90
60723;DHT22;46574;52.818;6.516;2022-08-19T15:20:11;24.50;99.90
60723;DHT22;46574;52.818;6.516;2022-08-19T15:22:38;24.30;99.90
60723;DHT22;46574;52.818;6.516;2022-08-19T15:25:05;24.20;99.90
60723;DHT22;46574;52.818;6.516;2022-08-19T15:27:31;24.30;99.90
60723;DHT22;46574;52.818;6.516;2022-08-19T15:29:57;24.30;99.90
60723;DHT22;46574;52.818;6.516;2022-08-19T15:32:23;24.40;99.90
60723;DHT22;46574;52.818;6.516;2022-08-19T15:34:51;24.50;99.90
60723;DHT22;46574;52.818;6.516;2022-08-19T15:37:17;24.60;99.90
60723;DHT22;46574;52.818;6.516;2022-08-19T15:39:42;24.60;99.90
60723;DHT22;46574;52.818;6.516;2022-08-19T15:42:08;24.50;99.90
60723;DHT22;46574;52.818;6.516;2022-08-19T15:44:34;24.50;99.90